Flugplatz Kiel-Holtenau

Bericht für EDHK

vom 19.11. um 09:50 UTC

Wind 14 kt aus 240°

Sichtweite 10 km oder mehr

aufgebrochene Bewölkung in 900 ft

Temperatur 8.0°C

Taupunkt 6.0°C

Luftfeuchtigkeit 87%

Luftdruck 1007 hPa

EDHK 190950Z 24014KT 9999 BKN009 08/06 Q1007

Prognose für EDHK

vom 19.11. um 00:00 UTC

Zwischen 00:00 UTC und 00:00 UTC

Wind 7 kt aus 230°

Sichtweite 8000 m

aufgebrochene Bewölkung in 300 ft


Zwischen 00:00 und 00:00 UTC übergehend zu

Wind 15 kt aus 230° in Böen 25 kt

Sichtweite 8000 m

aufgebrochene Bewölkung in 1200 ft


Zwischen 00:00 und 00:00 UTC übergehend zu

Wind 15 kt aus 230° in Böen 25 kt

Sichtweite 8000 m

aufgebrochene Bewölkung in 2000 ft

TAF EDHK 190800Z 1909/1918 23007KT 8000 BKN003 BECMG 1910/1913 23015G25KT BKN012 BECMG 1913/1915 BKN020
Impressum